sensor_id;sensor_type;location;lat;lon;timestamp;P1;durP1;ratioP1;P2;durP2;ratioP2
32228;SDS011;18717;48.034;11.186;2023-10-09T00:00:06;17.42;;;13.30;;
32228;SDS011;18717;48.034;11.186;2023-10-09T00:03:02;27.38;;;13.52;;
32228;SDS011;18717;48.034;11.186;2023-10-09T00:05:30;14.98;;;13.48;;
32228;SDS011;18717;48.034;11.186;2023-10-09T00:08:07;23.00;;;13.02;;
32228;SDS011;18717;48.034;11.186;2023-10-09T00:10:36;15.02;;;13.50;;
32228;SDS011;18717;48.034;11.186;2023-10-09T00:13:14;15.80;;;12.50;;
32228;SDS011;18717;48.034;11.186;2023-10-09T00:15:44;18.10;;;13.18;;
32228;SDS011;18717;48.034;11.186;2023-10-09T00:18:19;21.60;;;12.88;;
32228;SDS011;18717;48.034;11.186;2023-10-09T00:20:56;21.60;;;13.38;;
32228;SDS011;18717;48.034;11.186;2023-10-09T00:23:39;19.38;;;14.00;;
32228;SDS011;18717;48.034;11.186;2023-10-09T00:26:07;15.75;;;13.52;;
32228;SDS011;18717;48.034;11.186;2023-10-09T00:28:37;23.73;;;13.35;;
32228;SDS011;18717;48.034;11.186;2023-10-09T00:31:09;20.67;;;13.38;;
32228;SDS011;18717;48.034;11.186;2023-10-09T00:33:43;15.63;;;13.43;;
32228;SDS011;18717;48.034;11.186;2023-10-09T00:36:11;17.52;;;13.43;;
32228;SDS011;18717;48.034;11.186;2023-10-09T00:38:43;19.92;;;13.13;;
32228;SDS011;18717;48.034;11.186;2023-10-09T00:41:15;19.75;;;14.10;;
32228;SDS011;18717;48.034;11.186;2023-10-09T00:43:48;24.75;;;14.07;;
32228;SDS011;18717;48.034;11.186;2023-10-09T00:46:17;19.02;;;13.57;;
32228;SDS011;18717;48.034;11.186;2023-10-09T00:48:53;15.40;;;12.50;;
32228;SDS011;18717;48.034;11.186;2023-10-09T00:51:22;19.58;;;13.48;;
32228;SDS011;18717;48.034;11.186;2023-10-09T00:53:53;20.25;;;13.90;;
32228;SDS011;18717;48.034;11.186;2023-10-09T00:56:23;19.70;;;13.43;;
32228;SDS011;18717;48.034;11.186;2023-10-09T00:59:05;16.13;;;13.25;;
32228;SDS011;18717;48.034;11.186;2023-10-09T01:01:41;21.60;;;13.25;;
32228;SDS011;18717;48.034;11.186;2023-10-09T01:04:16;23.90;;;14.43;;
32228;SDS011;18717;48.034;11.186;2023-10-09T01:06:46;16.50;;;12.25;;
32228;SDS011;18717;48.034;11.186;2023-10-09T01:09:19;20.08;;;13.35;;
32228;SDS011;18717;48.034;11.186;2023-10-09T01:11:49;18.73;;;12.45;;
32228;SDS011;18717;48.034;11.186;2023-10-09T01:14:30;16.55;;;14.27;;
32228;SDS011;18717;48.034;11.186;2023-10-09T01:17:02;23.90;;;12.77;;
32228;SDS011;18717;48.034;11.186;2023-10-09T01:19:35;15.48;;;13.30;;
32228;SDS011;18717;48.034;11.186;2023-10-09T01:22:03;20.80;;;14.07;;
32228;SDS011;18717;48.034;11.186;2023-10-09T01:24:41;17.13;;;13.05;;
32228;SDS011;18717;48.034;11.186;2023-10-09T01:27:10;20.73;;;13.73;;
32228;SDS011;18717;48.034;11.186;2023-10-09T01:29:42;19.55;;;13.05;;
32228;SDS011;18717;48.034;11.186;2023-10-09T01:32:13;19.98;;;13.85;;
32228;SDS011;18717;48.034;11.186;2023-10-09T01:34:46;20.17;;;12.35;;
32228;SDS011;18717;48.034;11.186;2023-10-09T01:37:16;22.55;;;12.10;;
32228;SDS011;18717;48.034;11.186;2023-10-09T01:39:51;22.58;;;12.73;;
32228;SDS011;18717;48.034;11.186;2023-10-09T01:42:20;22.88;;;12.57;;
32228;SDS011;18717;48.034;11.186;2023-10-09T01:44:58;22.75;;;12.27;;
32228;SDS011;18717;48.034;11.186;2023-10-09T01:47:36;13.98;;;12.27;;
32228;SDS011;18717;48.034;11.186;2023-10-09T01:50:04;23.35;;;13.73;;
32228;SDS011;18717;48.034;11.186;2023-10-09T01:52:44;18.80;;;12.88;;
32228;SDS011;18717;48.034;11.186;2023-10-09T01:55:17;17.85;;;12.02;;
32228;SDS011;18717;48.034;11.186;2023-10-09T01:57:54;16.90;;;12.30;;
32228;SDS011;18717;48.034;11.186;2023-10-09T02:00:25;18.10;;;11.63;;
32228;SDS011;18717;48.034;11.186;2023-10-09T02:06:36;23.38;;;12.00;;
32228;SDS011;18717;48.034;11.186;2023-10-09T02:09:04;23.05;;;11.90;;
32228;SDS011;18717;48.034;11.186;2023-10-09T02:11:34;18.80;;;11.80;;
32228;SDS011;18717;48.034;11.186;2023-10-09T02:14:07;18.45;;;13.10;;
32228;SDS011;18717;48.034;11.186;2023-10-09T02:16:46;21.45;;;12.82;;
32228;SDS011;18717;48.034;11.186;2023-10-09T02:19:29;17.45;;;11.80;;
32228;SDS011;18717;48.034;11.186;2023-10-09T02:22:01;19.50;;;11.85;;
32228;SDS011;18717;48.034;11.186;2023-10-09T02:24:39;25.63;;;13.45;;
32228;SDS011;18717;48.034;11.186;2023-10-09T02:27:19;16.98;;;13.43;;
32228;SDS011;18717;48.034;11.186;2023-10-09T02:30:06;18.05;;;12.73;;
32228;SDS011;18717;48.034;11.186;2023-10-09T02:32:46;16.58;;;11.73;;
32228;SDS011;18717;48.034;11.186;2023-10-09T02:35:19;21.95;;;11.63;;
32228;SDS011;18717;48.034;11.186;2023-10-09T02:37:54;16.33;;;11.93;;
32228;SDS011;18717;48.034;11.186;2023-10-09T02:40:26;22.35;;;11.88;;
32228;SDS011;18717;48.034;11.186;2023-10-09T02:42:59;15.85;;;11.38;;
32228;SDS011;18717;48.034;11.186;2023-10-09T02:45:27;19.92;;;13.13;;
32228;SDS011;18717;48.034;11.186;2023-10-09T02:48:01;26.95;;;13.48;;
32228;SDS011;18717;48.034;11.186;2023-10-09T02:50:37;17.33;;;12.63;;
32228;SDS011;18717;48.034;11.186;2023-10-09T02:53:11;19.92;;;11.30;;
32228;SDS011;18717;48.034;11.186;2023-10-09T02:55:45;21.70;;;11.45;;
32228;SDS011;18717;48.034;11.186;2023-10-09T02:58:30;20.67;;;12.23;;
32228;SDS011;18717;48.034;11.186;2023-10-09T03:01:03;20.48;;;11.73;;
32228;SDS011;18717;48.034;11.186;2023-10-09T03:03:32;17.98;;;11.23;;
32228;SDS011;18717;48.034;11.186;2023-10-09T03:06:02;20.23;;;12.38;;
32228;SDS011;18717;48.034;11.186;2023-10-09T03:08:37;20.73;;;11.90;;
32228;SDS011;18717;48.034;11.186;2023-10-09T03:11:04;22.08;;;12.02;;
32228;SDS011;18717;48.034;11.186;2023-10-09T03:13:35;21.65;;;13.75;;
32228;SDS011;18717;48.034;11.186;2023-10-09T03:16:03;17.40;;;12.48;;
32228;SDS011;18717;48.034;11.186;2023-10-09T03:18:31;25.27;;;11.77;;
32228;SDS011;18717;48.034;11.186;2023-10-09T03:20:59;17.50;;;12.30;;
32228;SDS011;18717;48.034;11.186;2023-10-09T03:23:27;20.08;;;12.63;;
32228;SDS011;18717;48.034;11.186;2023-10-09T03:25:56;25.42;;;12.80;;
32228;SDS011;18717;48.034;11.186;2023-10-09T03:28:45;20.13;;;12.32;;
32228;SDS011;18717;48.034;11.186;2023-10-09T03:31:13;16.50;;;11.00;;
32228;SDS011;18717;48.034;11.186;2023-10-09T03:33:41;17.23;;;12.98;;
32228;SDS011;18717;48.034;11.186;2023-10-09T03:36:09;21.33;;;11.30;;
32228;SDS011;18717;48.034;11.186;2023-10-09T03:38:37;16.52;;;12.77;;
32228;SDS011;18717;48.034;11.186;2023-10-09T03:41:05;22.42;;;15.65;;
32228;SDS011;18717;48.034;11.186;2023-10-09T03:43:33;14.07;;;12.68;;
32228;SDS011;18717;48.034;11.186;2023-10-09T03:46:07;15.85;;;12.20;;
32228;SDS011;18717;48.034;11.186;2023-10-09T03:48:41;20.38;;;11.80;;
32228;SDS011;18717;48.034;11.186;2023-10-09T03:51:13;15.45;;;12.15;;
32228;SDS011;18717;48.034;11.186;2023-10-09T03:53:47;19.55;;;11.30;;
32228;SDS011;18717;48.034;11.186;2023-10-09T03:56:16;20.73;;;12.63;;
32228;SDS011;18717;48.034;11.186;2023-10-09T03:58:47;20.50;;;12.23;;
32228;SDS011;18717;48.034;11.186;2023-10-09T04:01:18;16.45;;;11.65;;
32228;SDS011;18717;48.034;11.186;2023-10-09T04:03:53;13.77;;;11.52;;
32228;SDS011;18717;48.034;11.186;2023-10-09T04:06:22;13.40;;;12.10;;
32228;SDS011;18717;48.034;11.186;2023-10-09T04:08:49;13.48;;;11.77;;
32228;SDS011;18717;48.034;11.186;2023-10-09T04:11:18;21.63;;;11.15;;
32228;SDS011;18717;48.034;11.186;2023-10-09T04:13:49;17.65;;;12.98;;
32228;SDS011;18717;48.034;11.186;2023-10-09T04:16:19;18.00;;;11.93;;
32228;SDS011;18717;48.034;11.186;2023-10-09T04:19:00;12.95;;;11.13;;
32228;SDS011;18717;48.034;11.186;2023-10-09T04:21:37;21.85;;;12.20;;
32228;SDS011;18717;48.034;11.186;2023-10-09T04:24:05;14.15;;;12.07;;
32228;SDS011;18717;48.034;11.186;2023-10-09T04:26:49;18.55;;;13.32;;
32228;SDS011;18717;48.034;11.186;2023-10-09T04:29:22;14.10;;;11.57;;
32228;SDS011;18717;48.034;11.186;2023-10-09T04:31:56;13.15;;;10.90;;
32228;SDS011;18717;48.034;11.186;2023-10-09T04:34:26;14.80;;;13.18;;
32228;SDS011;18717;48.034;11.186;2023-10-09T04:37:02;21.23;;;12.52;;
32228;SDS011;18717;48.034;11.186;2023-10-09T04:39:46;17.95;;;11.02;;
32228;SDS011;18717;48.034;11.186;2023-10-09T04:42:14;13.00;;;10.95;;
32228;SDS011;18717;48.034;11.186;2023-10-09T04:45:04;21.45;;;13.10;;
32228;SDS011;18717;48.034;11.186;2023-10-09T04:48:03;18.75;;;11.25;;
32228;SDS011;18717;48.034;11.186;2023-10-09T04:50:36;21.05;;;12.95;;
32228;SDS011;18717;48.034;11.186;2023-10-09T04:53:14;22.05;;;12.73;;
32228;SDS011;18717;48.034;11.186;2023-10-09T04:55:51;16.77;;;11.35;;
32228;SDS011;18717;48.034;11.186;2023-10-09T04:58:23;21.77;;;12.85;;
32228;SDS011;18717;48.034;11.186;2023-10-09T05:00:52;22.55;;;13.27;;
32228;SDS011;18717;48.034;11.186;2023-10-09T05:03:42;18.92;;;12.73;;
32228;SDS011;18717;48.034;11.186;2023-10-09T05:06:11;14.85;;;13.07;;
32228;SDS011;18717;48.034;11.186;2023-10-09T05:09:09;19.35;;;11.57;;
32228;SDS011;18717;48.034;11.186;2023-10-09T05:11:39;17.33;;;12.90;;
32228;SDS011;18717;48.034;11.186;2023-10-09T05:14:25;15.45;;;11.45;;
32228;SDS011;18717;48.034;11.186;2023-10-09T05:17:05;22.60;;;12.85;;
32228;SDS011;18717;48.034;11.186;2023-10-09T05:19:34;18.15;;;11.10;;
32228;SDS011;18717;48.034;11.186;2023-10-09T05:22:21;19.90;;;11.45;;
32228;SDS011;18717;48.034;11.186;2023-10-09T05:25:03;14.73;;;11.82;;
32228;SDS011;18717;48.034;11.186;2023-10-09T05:27:42;12.55;;;11.20;;
32228;SDS011;18717;48.034;11.186;2023-10-09T05:30:17;15.23;;;11.40;;
32228;SDS011;18717;48.034;11.186;2023-10-09T05:32:53;19.13;;;12.02;;
32228;SDS011;18717;48.034;11.186;2023-10-09T05:35:53;17.77;;;11.52;;
32228;SDS011;18717;48.034;11.186;2023-10-09T05:38:41;23.20;;;11.55;;
32228;SDS011;18717;48.034;11.186;2023-10-09T05:41:12;22.95;;;11.68;;
32228;SDS011;18717;48.034;11.186;2023-10-09T05:44:13;22.98;;;11.45;;
32228;SDS011;18717;48.034;11.186;2023-10-09T05:46:58;24.33;;;11.82;;
32228;SDS011;18717;48.034;11.186;2023-10-09T05:49:40;16.42;;;11.60;;
32228;SDS011;18717;48.034;11.186;2023-10-09T05:52:25;14.27;;;11.25;;
32228;SDS011;18717;48.034;11.186;2023-10-09T05:55:10;16.67;;;11.98;;
32228;SDS011;18717;48.034;11.186;2023-10-09T05:58:07;19.58;;;12.05;;
32228;SDS011;18717;48.034;11.186;2023-10-09T06:00:53;27.27;;;12.05;;
32228;SDS011;18717;48.034;11.186;2023-10-09T06:03:53;31.60;;;12.50;;
32228;SDS011;18717;48.034;11.186;2023-10-09T06:06:21;21.58;;;13.15;;
32228;SDS011;18717;48.034;11.186;2023-10-09T06:09:11;15.50;;;12.35;;
32228;SDS011;18717;48.034;11.186;2023-10-09T06:12:16;17.98;;;12.02;;
32228;SDS011;18717;48.034;11.186;2023-10-09T06:15:19;21.60;;;13.57;;
32228;SDS011;18717;48.034;11.186;2023-10-09T06:17:58;31.13;;;13.88;;
32228;SDS011;18717;48.034;11.186;2023-10-09T06:20:46;24.40;;;12.43;;
32228;SDS011;18717;48.034;11.186;2023-10-09T06:23:31;34.00;;;14.00;;
32228;SDS011;18717;48.034;11.186;2023-10-09T06:26:14;28.25;;;14.18;;
32228;SDS011;18717;48.034;11.186;2023-10-09T06:28:51;30.95;;;13.52;;
32228;SDS011;18717;48.034;11.186;2023-10-09T06:31:41;21.05;;;12.32;;
32228;SDS011;18717;48.034;11.186;2023-10-09T06:34:43;21.30;;;12.68;;
32228;SDS011;18717;48.034;11.186;2023-10-09T06:37:12;17.48;;;11.77;;
32228;SDS011;18717;48.034;11.186;2023-10-09T06:40:00;22.55;;;12.88;;
32228;SDS011;18717;48.034;11.186;2023-10-09T06:42:58;22.98;;;12.18;;
32228;SDS011;18717;48.034;11.186;2023-10-09T06:45:34;29.83;;;12.40;;
32228;SDS011;18717;48.034;11.186;2023-10-09T06:48:12;19.50;;;11.80;;
32228;SDS011;18717;48.034;11.186;2023-10-09T06:50:57;21.08;;;12.00;;
32228;SDS011;18717;48.034;11.186;2023-10-09T06:53:34;17.63;;;12.40;;
32228;SDS011;18717;48.034;11.186;2023-10-09T06:56:19;18.77;;;13.15;;
32228;SDS011;18717;48.034;11.186;2023-10-09T06:58:57;19.63;;;12.32;;
32228;SDS011;18717;48.034;11.186;2023-10-09T07:01:25;17.08;;;12.68;;
32228;SDS011;18717;48.034;11.186;2023-10-09T07:04:06;25.70;;;12.30;;
32228;SDS011;18717;48.034;11.186;2023-10-09T07:06:45;20.45;;;12.40;;
32228;SDS011;18717;48.034;11.186;2023-10-09T07:09:17;16.90;;;13.32;;
32228;SDS011;18717;48.034;11.186;2023-10-09T07:11:48;14.68;;;12.68;;
32228;SDS011;18717;48.034;11.186;2023-10-09T07:14:31;23.48;;;13.30;;
32228;SDS011;18717;48.034;11.186;2023-10-09T07:17:16;18.95;;;12.75;;
32228;SDS011;18717;48.034;11.186;2023-10-09T07:19:48;19.65;;;12.20;;
32228;SDS011;18717;48.034;11.186;2023-10-09T07:22:35;17.60;;;12.20;;
32228;SDS011;18717;48.034;11.186;2023-10-09T07:25:26;16.00;;;12.30;;
32228;SDS011;18717;48.034;11.186;2023-10-09T07:28:21;15.32;;;11.77;;
32228;SDS011;18717;48.034;11.186;2023-10-09T07:31:04;13.35;;;12.02;;
32228;SDS011;18717;48.034;11.186;2023-10-09T07:33:36;14.05;;;12.32;;
32228;SDS011;18717;48.034;11.186;2023-10-09T07:36:34;18.25;;;12.38;;
32228;SDS011;18717;48.034;11.186;2023-10-09T07:39:05;14.73;;;11.90;;
32228;SDS011;18717;48.034;11.186;2023-10-09T07:41:43;21.42;;;13.18;;
32228;SDS011;18717;48.034;11.186;2023-10-09T07:44:28;20.45;;;12.80;;
32228;SDS011;18717;48.034;11.186;2023-10-09T07:47:03;15.93;;;12.38;;
32228;SDS011;18717;48.034;11.186;2023-10-09T07:49:44;16.63;;;13.07;;
32228;SDS011;18717;48.034;11.186;2023-10-09T07:52:20;19.52;;;12.93;;
32228;SDS011;18717;48.034;11.186;2023-10-09T07:54:52;17.00;;;13.18;;
32228;SDS011;18717;48.034;11.186;2023-10-09T07:57:27;13.82;;;12.13;;
32228;SDS011;18717;48.034;11.186;2023-10-09T08:00:05;16.67;;;13.07;;
32228;SDS011;18717;48.034;11.186;2023-10-09T08:03:01;15.50;;;13.55;;
32228;SDS011;18717;48.034;11.186;2023-10-09T08:05:50;15.82;;;13.02;;
32228;SDS011;18717;48.034;11.186;2023-10-09T08:08:21;18.40;;;14.73;;
32228;SDS011;18717;48.034;11.186;2023-10-09T08:11:06;15.20;;;13.75;;
32228;SDS011;18717;48.034;11.186;2023-10-09T08:13:52;17.65;;;13.40;;
32228;SDS011;18717;48.034;11.186;2023-10-09T08:16:28;16.92;;;13.75;;
32228;SDS011;18717;48.034;11.186;2023-10-09T08:19:03;17.20;;;13.68;;
32228;SDS011;18717;48.034;11.186;2023-10-09T08:21:55;26.50;;;14.75;;
32228;SDS011;18717;48.034;11.186;2023-10-09T08:24:45;24.77;;;12.95;;
32228;SDS011;18717;48.034;11.186;2023-10-09T08:27:22;19.90;;;12.63;;
32228;SDS011;18717;48.034;11.186;2023-10-09T08:30:13;21.15;;;12.68;;
32228;SDS011;18717;48.034;11.186;2023-10-09T08:35:32;28.52;;;13.43;;
32228;SDS011;18717;48.034;11.186;2023-10-09T08:38:03;20.90;;;13.30;;
32228;SDS011;18717;48.034;11.186;2023-10-09T08:40:37;19.10;;;12.63;;
32228;SDS011;18717;48.034;11.186;2023-10-09T08:43:09;16.70;;;12.98;;
32228;SDS011;18717;48.034;11.186;2023-10-09T08:45:38;16.27;;;12.45;;
32228;SDS011;18717;48.034;11.186;2023-10-09T08:48:11;18.73;;;12.95;;
32228;SDS011;18717;48.034;11.186;2023-10-09T08:50:42;21.05;;;13.73;;
32228;SDS011;18717;48.034;11.186;2023-10-09T08:53:11;21.77;;;12.57;;
32228;SDS011;18717;48.034;11.186;2023-10-09T08:55:40;18.20;;;13.98;;
32228;SDS011;18717;48.034;11.186;2023-10-09T08:58:08;28.92;;;14.90;;
32228;SDS011;18717;48.034;11.186;2023-10-09T09:00:47;19.58;;;12.40;;
32228;SDS011;18717;48.034;11.186;2023-10-09T09:03:15;20.25;;;13.68;;
32228;SDS011;18717;48.034;11.186;2023-10-09T09:05:45;17.50;;;13.75;;
32228;SDS011;18717;48.034;11.186;2023-10-09T09:08:22;20.23;;;13.77;;
32228;SDS011;18717;48.034;11.186;2023-10-09T09:10:59;30.42;;;14.07;;
32228;SDS011;18717;48.034;11.186;2023-10-09T09:13:41;23.85;;;13.90;;
32228;SDS011;18717;48.034;11.186;2023-10-09T09:16:15;19.48;;;14.85;;
32228;SDS011;18717;48.034;11.186;2023-10-09T09:18:50;18.33;;;13.45;;
32228;SDS011;18717;48.034;11.186;2023-10-09T09:21:23;17.02;;;12.95;;
32228;SDS011;18717;48.034;11.186;2023-10-09T09:23:54;20.38;;;12.60;;
32228;SDS011;18717;48.034;11.186;2023-10-09T09:26:35;16.67;;;12.85;;
32228;SDS011;18717;48.034;11.186;2023-10-09T09:29:05;14.13;;;12.55;;
32228;SDS011;18717;48.034;11.186;2023-10-09T09:31:33;19.65;;;14.18;;
32228;SDS011;18717;48.034;11.186;2023-10-09T09:34:05;14.25;;;12.85;;
32228;SDS011;18717;48.034;11.186;2023-10-09T09:36:49;20.27;;;13.68;;
32228;SDS011;18717;48.034;11.186;2023-10-09T09:39:21;26.60;;;13.45;;
32228;SDS011;18717;48.034;11.186;2023-10-09T09:42:05;16.80;;;13.77;;
32228;SDS011;18717;48.034;11.186;2023-10-09T09:44:40;16.88;;;13.30;;
32228;SDS011;18717;48.034;11.186;2023-10-09T09:47:12;17.58;;;13.00;;
32228;SDS011;18717;48.034;11.186;2023-10-09T09:49:50;19.02;;;13.50;;
32228;SDS011;18717;48.034;11.186;2023-10-09T09:52:19;22.85;;;13.07;;
32228;SDS011;18717;48.034;11.186;2023-10-09T09:54:51;16.60;;;13.05;;
32228;SDS011;18717;48.034;11.186;2023-10-09T09:57:20;17.83;;;13.63;;
32228;SDS011;18717;48.034;11.186;2023-10-09T09:59:52;24.58;;;13.80;;
32228;SDS011;18717;48.034;11.186;2023-10-09T10:02:23;15.20;;;13.60;;
32228;SDS011;18717;48.034;11.186;2023-10-09T10:04:56;15.32;;;13.77;;
32228;SDS011;18717;48.034;11.186;2023-10-09T10:07:25;21.15;;;13.23;;
32228;SDS011;18717;48.034;11.186;2023-10-09T10:09:56;31.23;;;14.67;;
32228;SDS011;18717;48.034;11.186;2023-10-09T10:21:26;24.25;;;14.75;;
32228;SDS011;18717;48.034;11.186;2023-10-09T10:24:08;15.20;;;12.82;;
32228;SDS011;18717;48.034;11.186;2023-10-09T10:27:19;15.45;;;12.90;;
32228;SDS011;18717;48.034;11.186;2023-10-09T10:33:00;18.20;;;14.00;;
32228;SDS011;18717;48.034;11.186;2023-10-09T10:35:42;17.70;;;14.20;;
32228;SDS011;18717;48.034;11.186;2023-10-09T10:38:28;16.27;;;14.52;;
32228;SDS011;18717;48.034;11.186;2023-10-09T10:41:10;14.65;;;13.30;;
32228;SDS011;18717;48.034;11.186;2023-10-09T10:43:40;23.50;;;13.85;;
32228;SDS011;18717;48.034;11.186;2023-10-09T10:46:27;19.80;;;13.80;;
32228;SDS011;18717;48.034;11.186;2023-10-09T10:49:01;19.30;;;14.57;;
32228;SDS011;18717;48.034;11.186;2023-10-09T10:51:42;18.85;;;13.63;;
32228;SDS011;18717;48.034;11.186;2023-10-09T10:54:22;18.55;;;12.93;;
32228;SDS011;18717;48.034;11.186;2023-10-09T10:56:54;26.10;;;17.15;;
32228;SDS011;18717;48.034;11.186;2023-10-09T10:59:24;20.90;;;13.40;;
32228;SDS011;18717;48.034;11.186;2023-10-09T11:01:57;24.33;;;13.88;;
32228;SDS011;18717;48.034;11.186;2023-10-09T11:04:40;18.75;;;13.68;;
32228;SDS011;18717;48.034;11.186;2023-10-09T11:07:10;18.02;;;13.93;;
32228;SDS011;18717;48.034;11.186;2023-10-09T11:09:42;15.05;;;13.60;;
32228;SDS011;18717;48.034;11.186;2023-10-09T11:12:26;19.00;;;13.30;;
32228;SDS011;18717;48.034;11.186;2023-10-09T11:15:05;17.48;;;15.73;;
32228;SDS011;18717;48.034;11.186;2023-10-09T11:17:36;14.75;;;13.00;;
32228;SDS011;18717;48.034;11.186;2023-10-09T11:20:05;20.40;;;12.90;;
32228;SDS011;18717;48.034;11.186;2023-10-09T11:22:51;25.55;;;14.50;;
32228;SDS011;18717;48.034;11.186;2023-10-09T11:25:42;20.98;;;14.82;;
32228;SDS011;18717;48.034;11.186;2023-10-09T11:28:17;27.23;;;13.77;;
32228;SDS011;18717;48.034;11.186;2023-10-09T11:31:09;18.00;;;13.45;;
32228;SDS011;18717;48.034;11.186;2023-10-09T11:33:45;23.42;;;14.35;;
32228;SDS011;18717;48.034;11.186;2023-10-09T11:36:15;17.15;;;14.82;;
32228;SDS011;18717;48.034;11.186;2023-10-09T11:38:42;19.50;;;14.82;;
32228;SDS011;18717;48.034;11.186;2023-10-09T11:41:12;22.85;;;14.40;;
32228;SDS011;18717;48.034;11.186;2023-10-09T11:43:46;20.38;;;13.85;;
32228;SDS011;18717;48.034;11.186;2023-10-09T11:46:21;22.63;;;14.18;;
32228;SDS011;18717;48.034;11.186;2023-10-09T11:49:09;19.48;;;14.63;;
32228;SDS011;18717;48.034;11.186;2023-10-09T11:52:10;19.73;;;13.93;;
32228;SDS011;18717;48.034;11.186;2023-10-09T11:55:02;24.65;;;15.63;;
32228;SDS011;18717;48.034;11.186;2023-10-09T11:57:33;27.50;;;14.73;;
32228;SDS011;18717;48.034;11.186;2023-10-09T12:00:02;35.45;;;18.13;;
32228;SDS011;18717;48.034;11.186;2023-10-09T12:02:50;18.98;;;13.15;;
32228;SDS011;18717;48.034;11.186;2023-10-09T12:05:20;25.60;;;15.63;;
32228;SDS011;18717;48.034;11.186;2023-10-09T12:07:49;22.52;;;14.43;;
32228;SDS011;18717;48.034;11.186;2023-10-09T12:10:21;31.65;;;16.17;;
32228;SDS011;18717;48.034;11.186;2023-10-09T12:12:52;33.35;;;16.23;;
32228;SDS011;18717;48.034;11.186;2023-10-09T12:15:19;28.05;;;16.42;;
32228;SDS011;18717;48.034;11.186;2023-10-09T12:17:47;31.08;;;15.55;;
32228;SDS011;18717;48.034;11.186;2023-10-09T12:20:16;24.45;;;15.57;;
32228;SDS011;18717;48.034;11.186;2023-10-09T12:22:58;25.38;;;15.52;;
32228;SDS011;18717;48.034;11.186;2023-10-09T12:25:27;24.33;;;14.15;;
32228;SDS011;18717;48.034;11.186;2023-10-09T12:27:58;27.60;;;16.50;;
32228;SDS011;18717;48.034;11.186;2023-10-09T12:30:27;24.52;;;14.65;;
32228;SDS011;18717;48.034;11.186;2023-10-09T12:32:56;17.42;;;14.65;;
32228;SDS011;18717;48.034;11.186;2023-10-09T12:35:25;23.20;;;15.88;;
32228;SDS011;18717;48.034;11.186;2023-10-09T12:37:54;27.65;;;16.30;;
32228;SDS011;18717;48.034;11.186;2023-10-09T12:40:24;21.48;;;15.95;;
32228;SDS011;18717;48.034;11.186;2023-10-09T12:42:55;21.63;;;14.65;;
32228;SDS011;18717;48.034;11.186;2023-10-09T12:45:25;26.52;;;14.32;;
32228;SDS011;18717;48.034;11.186;2023-10-09T12:47:53;33.58;;;15.95;;
32228;SDS011;18717;48.034;11.186;2023-10-09T12:50:25;24.75;;;14.93;;
32228;SDS011;18717;48.034;11.186;2023-10-09T12:53:00;20.20;;;15.35;;
32228;SDS011;18717;48.034;11.186;2023-10-09T12:55:35;21.60;;;14.05;;
32228;SDS011;18717;48.034;11.186;2023-10-09T12:58:08;27.52;;;14.25;;
32228;SDS011;18717;48.034;11.186;2023-10-09T13:00:41;27.80;;;14.90;;
32228;SDS011;18717;48.034;11.186;2023-10-09T13:03:15;18.67;;;13.40;;
32228;SDS011;18717;48.034;11.186;2023-10-09T13:05:49;25.75;;;15.13;;
32228;SDS011;18717;48.034;11.186;2023-10-09T13:08:20;19.77;;;14.80;;
32228;SDS011;18717;48.034;11.186;2023-10-09T13:10:51;18.95;;;15.25;;
32228;SDS011;18717;48.034;11.186;2023-10-09T13:13:25;19.98;;;14.07;;
32228;SDS011;18717;48.034;11.186;2023-10-09T13:16:06;19.88;;;13.25;;
32228;SDS011;18717;48.034;11.186;2023-10-09T13:18:38;19.75;;;14.30;;
32228;SDS011;18717;48.034;11.186;2023-10-09T13:21:07;20.13;;;14.02;;
32228;SDS011;18717;48.034;11.186;2023-10-09T13:23:34;26.70;;;14.10;;
32228;SDS011;18717;48.034;11.186;2023-10-09T13:26:15;20.00;;;13.57;;
32228;SDS011;18717;48.034;11.186;2023-10-09T13:28:58;23.35;;;14.52;;
32228;SDS011;18717;48.034;11.186;2023-10-09T13:31:28;16.05;;;13.48;;
32228;SDS011;18717;48.034;11.186;2023-10-09T13:33:58;17.92;;;13.73;;
32228;SDS011;18717;48.034;11.186;2023-10-09T13:36:28;19.63;;;13.45;;
32228;SDS011;18717;48.034;11.186;2023-10-09T13:38:59;18.15;;;15.65;;
32228;SDS011;18717;48.034;11.186;2023-10-09T13:41:50;28.45;;;13.73;;
32228;SDS011;18717;48.034;11.186;2023-10-09T13:44:25;24.58;;;14.80;;
32228;SDS011;18717;48.034;11.186;2023-10-09T13:46:54;24.95;;;14.38;;
32228;SDS011;18717;48.034;11.186;2023-10-09T13:49:22;21.48;;;14.50;;
32228;SDS011;18717;48.034;11.186;2023-10-09T13:51:57;16.77;;;13.23;;
32228;SDS011;18717;48.034;11.186;2023-10-09T13:54:26;22.95;;;13.60;;
32228;SDS011;18717;48.034;11.186;2023-10-09T13:57:07;17.67;;;13.82;;
32228;SDS011;18717;48.034;11.186;2023-10-09T13:59:37;21.02;;;14.20;;
32228;SDS011;18717;48.034;11.186;2023-10-09T14:02:10;16.02;;;13.57;;
32228;SDS011;18717;48.034;11.186;2023-10-09T14:04:44;19.25;;;13.73;;
32228;SDS011;18717;48.034;11.186;2023-10-09T14:07:13;19.13;;;14.18;;
32228;SDS011;18717;48.034;11.186;2023-10-09T14:09:43;25.38;;;15.57;;
32228;SDS011;18717;48.034;11.186;2023-10-09T14:12:23;20.33;;;13.90;;
32228;SDS011;18717;48.034;11.186;2023-10-09T14:14:56;22.73;;;14.57;;
32228;SDS011;18717;48.034;11.186;2023-10-09T14:17:24;16.92;;;13.82;;
32228;SDS011;18717;48.034;11.186;2023-10-09T14:19:55;16.80;;;13.52;;
32228;SDS011;18717;48.034;11.186;2023-10-09T14:22:43;18.48;;;13.98;;
32228;SDS011;18717;48.034;11.186;2023-10-09T14:25:12;18.10;;;13.68;;
32228;SDS011;18717;48.034;11.186;2023-10-09T14:27:43;17.05;;;13.70;;
32228;SDS011;18717;48.034;11.186;2023-10-09T14:30:14;21.70;;;14.10;;
32228;SDS011;18717;48.034;11.186;2023-10-09T14:32:49;24.08;;;14.23;;
32228;SDS011;18717;48.034;11.186;2023-10-09T14:35:22;16.55;;;13.48;;
32228;SDS011;18717;48.034;11.186;2023-10-09T14:37:53;18.08;;;13.32;;
32228;SDS011;18717;48.034;11.186;2023-10-09T14:40:21;25.55;;;15.45;;
32228;SDS011;18717;48.034;11.186;2023-10-09T14:42:57;19.80;;;14.02;;
32228;SDS011;18717;48.034;11.186;2023-10-09T14:45:25;15.68;;;12.88;;
32228;SDS011;18717;48.034;11.186;2023-10-09T14:47:53;16.50;;;14.63;;
32228;SDS011;18717;48.034;11.186;2023-10-09T14:50:21;16.70;;;14.45;;
32228;SDS011;18717;48.034;11.186;2023-10-09T14:52:49;16.58;;;13.10;;
32228;SDS011;18717;48.034;11.186;2023-10-09T14:55:17;23.55;;;14.05;;
32228;SDS011;18717;48.034;11.186;2023-10-09T14:57:47;18.98;;;13.93;;
32228;SDS011;18717;48.034;11.186;2023-10-09T15:00:17;22.05;;;13.38;;
32228;SDS011;18717;48.034;11.186;2023-10-09T15:02:50;16.80;;;12.70;;
32228;SDS011;18717;48.034;11.186;2023-10-09T15:05:17;31.88;;;13.95;;
32228;SDS011;18717;48.034;11.186;2023-10-09T15:07:45;23.38;;;13.07;;
32228;SDS011;18717;48.034;11.186;2023-10-09T15:10:13;24.40;;;13.32;;
32228;SDS011;18717;48.034;11.186;2023-10-09T15:12:42;15.35;;;13.02;;
32228;SDS011;18717;48.034;11.186;2023-10-09T15:15:13;22.47;;;13.53;;